Latest Weather Observations for Latrobe Valley

IDV60801

Issued at 8:02 am EST Monday 31 August 2015 (issued every 30 minutes, with the page automatically refreshed every 10 minutes)

About weather observations | Map of weather stations | Latest weather observations for VIC | Other Formats
Station Details ID: 085280 Name: LATROBE VALLEY AIRPORT Lat: -38.21 Lon: 146.47 Height: 55.7 m
Data from the previous 72 hours. | See also: Recent months at Latrobe Valley
Date/Time
EST
Temp
°C
App
Temp
°C
Dew
Point
Rel
Hum
%
Delta-T
°C
Wind Press
QNH
hPa
Press
MSL
hPa
Rain
since 9 am
mm
Dir
 
Spd
km/h
Gust
km/h
Spd
kts
Gust
kts
31/08:00am 4.8 3.6 4.8 100 0.0 CALM 0 0 0 0 1021.2 1021.3 0.0
31/07:30am 4.2 2.9 4.2 100 0.0 CALM 0 0 0 0 1021.1 1021.2 0.0
31/07:00am 3.3 1.9 3.3 100 0.0 CALM 0 0 0 0 1020.9 1021.0 0.0
31/06:30am 3.0 1.5 3.0 100 0.0 CALM 0 0 0 0 1020.7 1020.8 0.0
31/06:00am 3.0 1.5 3.0 100 0.0 CALM 0 0 0 0 1020.5 1020.6 0.0
31/05:30am 2.7 0.8 2.7 100 0.0 SSE 2 7 1 4 1020.5 1020.6 0.0
31/05:00am 2.6 1.0 2.6 100 0.0 CALM 0 0 0 0 1020.6 1020.7 0.0
31/04:30am 2.7 1.1 2.7 100 0.0 CALM 0 0 0 0 1020.5 1020.6 0.0
31/04:00am 1.8 -0.3 1.8 100 0.0 ENE 2 6 1 3 1020.5 1020.6 0.0
31/03:30am 2.9 0.1 2.9 100 0.0 ESE 7 9 4 5 1020.5 1020.6 0.0
31/03:00am 3.4 2.0 3.4 100 0.0 CALM 0 2 0 1 1020.7 1020.8 0.0
31/02:30am 4.3 3.0 4.3 100 0.0 CALM 0 2 0 1 1021.0 1021.1 0.0
31/02:00am 5.1 3.6 5.1 100 0.0 NNE 2 7 1 4 1021.4 1021.5 0.0
31/01:30am 5.8 4.8 5.8 100 0.0 CALM 0 0 0 0 1021.6 1021.7 0.0
31/01:00am 5.8 4.8 5.8 100 0.0 CALM 0 0 0 0 1022.0 1022.1 0.0
31/12:30am 6.5 5.3 6.5 100 0.0 SW 2 7 1 4 1022.1 1022.2 0.0
31/12:00am 6.9 5.0 6.9 100 0.0 SSW 6 6 3 3 1022.3 1022.4 0.0
 
Date/Time
EST
Temp
°C
App
Temp
°C
Dew
Point
Rel
Hum
%
Delta-T
°C
Wind Press
QNH
hPa
Press
MSL
hPa
Rain
since 9 am
mm
Dir
 
Spd
km/h
Gust
km/h
Spd
kts
Gust
kts
30/11:30pm 6.7 4.8 6.7 100 0.0 SW 6 7 3 4 1022.6 1022.7 0.0
30/11:00pm 5.5 3.2 5.5 100 0.0 WNW 7 9 4 5 1022.9 1023.0 0.0
30/10:30pm 5.5 2.4 5.5 100 0.0 W 11 13 6 7 1023.1 1023.2 0.0
30/10:00pm 6.6 4.1 6.5 99 0.0 WSW 9 11 5 6 1023.2 1023.3 0.0
30/09:30pm 7.4 5.5 7.4 100 0.0 SW 7 9 4 5 1023.5 1023.6 0.0
30/09:00pm 7.1 4.7 7.1 100 0.0 WSW 9 11 5 6 1023.5 1023.6 0.0
30/08:30pm 6.7 3.8 6.7 100 0.0 W 11 13 6 7 1023.5 1023.6 0.0
30/08:00pm 6.5 4.0 6.5 100 0.0 WSW 9 15 5 8 1023.3 1023.4 0.0
30/07:30pm 7.7 4.3 7.6 99 0.0 SW 15 19 8 10 1023.1 1023.2 0.0
30/07:00pm 7.8 4.0 7.7 99 0.0 SW 17 20 9 11 1022.8 1022.9 0.0
30/06:30pm 8.7 4.5 8.1 96 0.3 SW 20 28 11 15 1022.6 1022.7 0.0
30/06:00pm 9.3 5.4 8.8 97 0.2 SW 19 26 10 14 1022.2 1022.3 0.0
30/05:30pm 10.5 6.2 9.3 92 0.6 SW 22 28 12 15 1021.9 1022.0 0.0
30/05:00pm 11.6 7.9 10.0 90 0.8 SW 20 24 11 13 1021.6 1021.7 0.0
30/04:30pm 12.3 8.7 10.4 88 1.0 SW 20 26 11 14 1021.4 1021.5 0.0
30/04:00pm 12.4 8.8 10.0 85 1.2 SW 19 24 10 13 1021.5 1021.6 0.0
30/03:30pm 13.6 11.0 9.3 75 2.2 W 13 17 7 9 1021.7 1021.8 0.0
30/03:00pm 13.4 10.7 8.9 74 2.3 W 13 19 7 10 1021.7 1021.8 0.0
30/02:30pm 13.7 11.6 9.7 77 2.1 SW 11 20 6 11 1021.9 1022.0 0.0
30/02:00pm 13.9 11.7 9.3 74 2.3 SW 11 17 6 9 1022.0 1022.1 0.0
30/01:30pm 13.4 10.5 9.6 78 1.9 W 15 20 8 11 1022.2 1022.3 0.0
30/01:00pm 13.3 11.2 9.7 79 1.8 SW 11 15 6 8 1022.5 1022.6 0.0
30/12:30pm 13.4 10.8 9.5 77 2.0 WSW 13 19 7 10 1022.8 1022.9 0.0
30/12:00pm 12.6 10.7 9.1 79 1.8 SSW 9 15 5 8 1023.2 1023.3 0.0
30/11:30am 12.1 9.0 8.9 81 1.6 WSW 15 19 8 10 1023.7 1023.8 0.0
30/11:00am 12.0 10.0 10.2 89 0.9 WSW 11 17 6 9 1024.0 1024.1 0.0
30/10:30am 11.2 8.9 10.6 96 0.3 WSW 13 20 7 11 1024.3 1024.4 0.0
30/10:27am 11.1 8.8 10.3 95 0.4 WSW 13 20 7 11 1024.3 1024.4 0.0
30/10:00am 10.6 8.7 10.6 100 0.0 WSW 11 15 6 8 1024.6 1024.7 0.0
30/09:30am 9.7 8.0 9.7 100 0.0 WNW 9 13 5 7 1024.7 1024.8 0.0
30/09:00am 8.9 7.0 8.9 100 0.0 WSW 9 11 5 6 1024.7 1024.8 0.8
30/08:30am 8.9 6.6 8.9 100 0.0 SW 11 13 6 7 1024.6 1024.7 0.8
30/08:00am 8.5 7.4 8.5 100 0.0 WSW 4 7 2 4 1024.5 1024.6 0.8
30/07:30am 8.1 6.5 8.1 100 0.0 WSW 6 6 3 3 1024.1 1024.2 0.8
30/07:28am 8.0 6.4 8.0 100 0.0 WSW 6 7 3 4 1024.1 1024.2 0.8
30/07:25am 8.0 6.4 8.0 100 0.0 WSW 6 7 3 4 1024.0 1024.1 0.8
30/07:00am 8.0 6.4 8.0 100 0.0 SW 6 7 3 4 1023.8 1023.9 0.8
30/06:30am 7.6 5.9 7.6 100 0.0 WSW 6 7 3 4 1023.7 1023.8 0.6
30/06:00am 7.7 5.1 7.7 100 0.0 WNW 11 13 6 7 1023.5 1023.6 0.6
30/05:44am 7.6 5.3 7.6 100 0.0 WNW 9 13 5 7 1023.4 1023.5 0.6
30/05:30am 7.8 5.2 7.8 100 0.0 WNW 11 15 6 8 1023.3 1023.4 0.6
30/05:02am 8.1 6.0 8.1 100 0.0 WNW 9 13 5 7 1023.2 1023.3 0.6
30/05:00am 8.1 6.0 8.1 100 0.0 WNW 9 13 5 7 1023.2 1023.3 0.6
30/04:33am 8.3 5.8 8.3 100 0.0 WSW 11 17 6 9 1023.1 1023.2 0.6
30/04:30am 8.3 5.8 8.3 100 0.0 WSW 11 17 6 9 1023.1 1023.2 0.6
30/04:11am 8.4 5.9 8.4 100 0.0 SSW 11 15 6 8 1023.0 1023.1 0.6
30/04:04am 8.4 6.7 8.4 100 0.0 S 7 9 4 5 1022.9 1023.0 0.4
30/04:00am 8.4 6.3 8.4 100 0.0 SSW 9 11 5 6 1022.9 1023.0 0.4
30/03:30am 8.2 6.1 8.2 100 0.0 WNW 9 13 5 7 1022.9 1023.0 0.4
30/03:00am 7.7 5.1 7.7 100 0.0 WNW 11 13 6 7 1022.9 1023.0 0.4
30/02:30am 8.0 4.7 8.0 100 0.0 WNW 15 19 8 10 1023.0 1023.1 0.4
30/02:19am 7.8 4.1 7.8 100 0.0 WNW 17 20 9 11 1023.1 1023.2 0.4
30/02:00am 7.9 4.6 7.9 100 0.0 W 15 19 8 10 1023.3 1023.4 0.4
30/01:59am 7.9 4.6 7.9 100 0.0 W 15 19 8 10 1023.3 1023.4 0.4
30/01:56am 7.8 4.4 7.8 100 0.0 W 15 20 8 11 1023.4 1023.5 0.4
30/01:38am 7.5 4.8 7.5 100 0.0 W 11 15 6 8 1023.6 1023.7 0.4
30/01:30am 7.3 5.0 7.3 100 0.0 W 9 13 5 7 1023.6 1023.7 0.4
30/01:00am 7.9 4.2 7.9 100 0.0 WNW 17 19 9 10 1023.7 1023.8 0.4
30/12:41am 7.9 4.6 7.9 100 0.0 WNW 15 19 8 10 1023.8 1023.9 0.4
30/12:30am 8.2 5.3 8.2 100 0.0 WNW 13 17 7 9 1023.9 1024.0 0.4
30/12:00am 8.3 5.1 8.3 100 0.0 WNW 15 19 8 10 1024.0 1024.1 0.4
 
Date/Time
EST
Temp
°C
App
Temp
°C
Dew
Point
Rel
Hum
%
Delta-T
°C
Wind Press
QNH
hPa
Press
MSL
hPa
Rain
since 9 am
mm
Dir
 
Spd
km/h
Gust
km/h
Spd
kts
Gust
kts
29/11:44pm 8.0 5.5 8.0 100 0.0 WNW 11 15 6 8 1024.0 1024.1 0.4
29/11:39pm 7.9 4.9 7.9 100 0.0 WNW 13 15 7 8 1024.1 1024.2 0.4
29/11:30pm 7.9 4.9 7.9 100 0.0 W 13 17 7 9 1024.0 1024.1 0.4
29/11:09pm 8.2 5.3 8.2 100 0.0 W 13 17 7 9 1024.1 1024.2 0.4
29/11:04pm 8.2 5.3 8.2 100 0.0 W 13 15 7 8 1024.1 1024.2 0.4
29/11:00pm 8.2 5.7 8.2 100 0.0 W 11 15 6 8 1024.1 1024.2 0.4
29/10:30pm 8.8 6.1 8.8 100 0.0 WNW 13 20 7 11 1024.1 1024.2 0.4
29/10:25pm 8.8 5.7 8.8 100 0.0 WNW 15 19 8 10 1024.1 1024.2 0.4
29/10:06pm 8.7 5.6 8.7 100 0.0 WNW 15 20 8 11 1024.2 1024.3 0.4
29/10:00pm 8.6 5.4 8.6 100 0.0 WNW 15 19 8 10 1024.3 1024.4 0.4
29/09:45pm 8.6 5.8 8.6 100 0.0 WNW 13 19 7 10 1024.2 1024.3 0.4
29/09:41pm 8.6 6.2 8.6 100 0.0 WNW 11 17 6 9 1024.3 1024.4 0.4
29/09:30pm 8.6 5.8 8.6 100 0.0 WNW 13 19 7 10 1024.3 1024.4 0.4
29/09:28pm 8.7 5.9 8.7 100 0.0 WNW 13 19 7 10 1024.3 1024.4 0.4
29/09:00pm 8.8 5.3 8.8 100 0.0 WNW 17 22 9 12 1024.1 1024.2 0.4
29/08:51pm 8.9 5.4 8.9 100 0.0 WNW 17 20 9 11 1024.0 1024.1 0.4
29/08:40pm 8.9 5.4 8.9 100 0.0 WNW 17 20 9 11 1024.0 1024.1 0.4
29/08:30pm 8.8 5.7 8.8 100 0.0 W 15 19 8 10 1024.0 1024.1 0.4
29/08:00pm 8.9 5.1 8.9 100 0.0 WNW 19 26 10 14 1023.7 1023.8 0.4
29/07:30pm 9.1 5.1 9.1 100 0.0 WNW 20 26 11 14 1023.7 1023.8 0.4
29/07:00pm 9.1 5.7 9.1 100 0.0 WNW 17 20 9 11 1023.5 1023.6 0.4
29/06:30pm 9.3 5.9 9.3 100 0.0 W 17 24 9 13 1023.3 1023.4 0.4
29/06:00pm 9.5 5.6 9.5 100 0.0 WSW 20 28 11 15 1023.0 1023.1 0.4
29/05:30pm 10.2 6.5 10.2 100 0.0 WSW 20 28 11 15 1022.8 1022.9 0.4
29/05:00pm 10.6 6.2 10.4 99 0.1 WSW 24 30 13 16 1022.6 1022.7 0.4
29/04:30pm 10.8 6.5 10.8 100 0.0 WSW 24 32 13 17 1022.4 1022.5 0.4
29/04:00pm 10.7 7.3 10.7 100 0.0 WSW 19 20 10 11 1022.3 1022.4 0.4
29/03:30pm 10.9 6.3 10.9 100 0.0 WSW 26 35 14 19 1022.3 1022.4 0.2
29/03:00pm 11.3 7.2 11.3 100 0.0 WSW 24 32 13 17 1022.2 1022.3 0.2
29/02:30pm 11.6 7.0 11.1 97 0.3 WSW 26 33 14 18 1022.1 1022.2 0.2
29/02:00pm 11.7 7.6 11.5 99 0.1 WSW 24 30 13 16 1022.3 1022.4 0.2
29/01:30pm 10.8 5.8 10.8 100 0.0 W 28 39 15 21 1022.4 1022.5 0.2
29/01:26pm 10.8 6.1 10.8 100 0.0 W 26 37 14 20 1022.4 1022.5 0.2
29/01:23pm 10.9 7.0 10.9 100 0.0 W 22 32 12 17 1022.5 1022.6 0.2
29/01:00pm 9.8 6.0 9.8 100 0.0 W 20 28 11 15 1022.7 1022.8 0.2
29/12:45pm 9.8 5.2 9.8 100 0.0 W 24 30 13 16 1023.0 1023.1 0.2
29/12:30pm 9.6 4.2 9.6 100 0.0 WNW 28 35 15 19 1023.0 1023.1 0.2
29/12:21pm 9.4 4.7 9.4 100 0.0 WNW 24 33 13 18 1023.2 1023.3 0.2
29/12:00pm 9.3 3.5 9.3 100 0.0 WNW 30 37 16 20 1023.2 1023.3 0.0
29/11:57am 9.6 4.2 9.6 100 0.0 WNW 28 37 15 20 1023.3 1023.4 0.0
29/11:41am 9.0 3.1 9.0 100 0.0 WNW 30 41 16 22 1023.5 1023.6 0.0
29/11:38am 9.0 2.7 9.0 100 0.0 WNW 32 41 17 22 1023.4 1023.5 0.0
29/11:31am 9.0 3.1 9.0 100 0.0 WNW 30 39 16 21 1023.4 1023.5 0.0
29/11:30am 8.9 3.0 8.9 100 0.0 WNW 30 39 16 21 1023.4 1023.5 0.0
29/11:20am 9.4 4.4 9.4 100 0.0 W 26 35 14 19 1023.5 1023.6 0.0
29/11:00am 8.2 1.7 8.2 100 0.0 WNW 32 43 17 23 1023.6 1023.7 0.0
29/10:38am 8.2 1.1 8.2 100 0.0 W 35 46 19 25 1023.4 1023.5 0.0
29/10:30am 8.5 0.8 8.5 100 0.0 WNW 39 50 21 27 1023.3 1023.4 0.0
29/10:00am 7.7 0.9 7.7 100 0.0 W 33 46 18 25 1023.5 1023.6 0.0
29/09:30am 8.1 1.0 8.0 99 0.0 W 35 48 19 26 1023.6 1023.7 0.0
29/09:00am 7.1 0.3 7.0 99 0.0 WNW 32 43 17 23 1024.1 1024.2 2.8
29/08:30am 6.2 0.0 6.1 99 0.0 WNW 28 35 15 19 1024.1 1024.2 2.8
29/08:00am 5.8 0.6 5.7 99 0.0 WNW 22 30 12 16 1024.2 1024.3 2.8
29/07:30am 5.3 0.6 5.2 99 0.0 WNW 19 26 10 14 1024.3 1024.4 2.8
29/07:00am 5.0 -0.3 4.9 99 0.0 WNW 22 28 12 15 1023.9 1024.0 2.8
29/06:30am 4.7 -0.7 4.6 99 0.0 WNW 22 32 12 17 1023.8 1023.9 2.8
29/06:00am 4.9 0.1 4.8 99 0.0 WNW 19 32 10 17 1024.0 1024.1 2.8
29/05:30am 4.3 -0.8 4.2 99 0.0 WNW 20 26 11 14 1023.9 1024.0 2.8
29/05:00am 3.4 -0.5 3.3 99 0.0 W 13 15 7 8 1024.1 1024.2 2.6
29/04:30am 4.1 -0.1 4.0 99 0.0 W 15 19 8 10 1024.2 1024.3 2.6
29/04:00am 2.9 -1.1 2.9 100 0.0 W 13 13 7 7 1024.0 1024.1 2.6
29/03:30am 3.5 0.0 3.5 100 0.0 WSW 11 11 6 6 1024.4 1024.5 2.6
29/03:00am 4.5 0.8 4.5 100 0.0 W 13 15 7 8 1024.5 1024.6 2.6
29/02:30am 5.7 1.9 5.7 100 0.0 WSW 15 20 8 11 1024.7 1024.8 2.6
29/02:00am 5.1 1.5 5.1 100 0.0 WSW 13 17 7 9 1024.9 1025.0 2.6
29/01:30am 5.2 1.6 5.2 100 0.0 W 13 17 7 9 1024.9 1025.0 2.6
29/01:00am 5.7 2.6 5.7 100 0.0 W 11 15 6 8 1025.0 1025.1 2.6
29/12:30am 6.2 3.2 6.2 100 0.0 W 11 17 6 9 1024.9 1025.0 2.6
29/12:00am 6.2 2.1 6.2 100 0.0 WNW 17 20 9 11 1025.0 1025.1 2.6
 
Date/Time
EST
Temp
°C
App
Temp
°C
Dew
Point
Rel
Hum
%
Delta-T
°C
Wind Press
QNH
hPa
Press
MSL
hPa
Rain
since 9 am
mm
Dir
 
Spd
km/h
Gust
km/h
Spd
kts
Gust
kts
28/11:30pm 4.5 1.6 4.5 100 0.0 WSW 9 11 5 6 1025.1 1025.2 2.6
28/11:00pm 5.4 3.2 5.4 100 0.0 WSW 6 7 3 4 1025.1 1025.2 2.6
28/10:30pm 5.5 3.3 5.5 100 0.0 WNW 6 7 3 4 1025.3 1025.4 2.6
28/10:00pm 6.2 3.2 6.2 100 0.0 W 11 11 6 6 1025.3 1025.4 2.6
28/09:30pm 7.0 5.2 7.0 100 0.0 WSW 6 9 3 5 1025.4 1025.5 2.6
28/09:00pm 7.9 5.3 7.9 100 0.0 W 11 15 6 8 1025.1 1025.2 2.6
28/08:30pm 7.9 5.3 7.9 100 0.0 W 11 13 6 7 1024.9 1025.0 2.6
28/08:00pm 7.4 4.3 7.4 100 0.0 W 13 13 7 7 1024.7 1024.8 2.6
28/07:30pm 7.7 5.5 7.7 100 0.0 SW 9 11 5 6 1024.5 1024.6 2.6
28/07:00pm 8.4 5.6 8.4 100 0.0 SW 13 17 7 9 1024.3 1024.4 2.6
28/06:30pm 8.1 5.2 8.1 100 0.0 SW 13 15 7 8 1024.1 1024.2 2.6
28/06:00pm 8.6 5.8 8.6 100 0.0 SW 13 15 7 8 1023.8 1023.9 2.6
28/05:30pm 9.9 7.3 9.4 97 0.2 SW 13 19 7 10 1023.5 1023.6 2.6
28/05:00pm 10.7 8.0 10.4 98 0.2 SSW 15 24 8 13 1023.5 1023.6 2.6
28/04:30pm 11.8 9.2 10.7 93 0.6 SSW 15 20 8 11 1023.1 1023.2 2.6
28/04:00pm 12.1 9.4 10.3 89 0.9 SSW 15 20 8 11 1023.0 1023.1 2.6
28/03:30pm 11.7 9.2 10.9 95 0.4 SSW 15 20 8 11 1023.0 1023.1 2.6
28/03:00pm 11.5 7.8 10.2 92 0.7 SW 20 28 11 15 1023.1 1023.2 2.6
28/02:55pm 11.9 9.6 11.7 99 0.1 SSW 15 26 8 14 1023.0 1023.1 2.6
28/02:37pm 10.5 7.8 10.3 99 0.1 SW 15 24 8 13 1023.1 1023.2 2.6
28/02:30pm 12.0 10.9 12.0 100 0.0 WNW 9 11 5 6 1022.9 1023.0 2.4
28/02:03pm 10.7 9.2 10.7 100 0.0 WNW 9 13 5 7 1023.0 1023.1 2.2
28/02:00pm 10.9 9.5 10.9 100 0.0 W 9 13 5 7 1023.0 1023.1 2.2
28/01:51pm 10.6 8.7 10.6 100 0.0 W 11 17 6 9 1023.1 1023.2 2.2
28/01:38pm 10.8 7.8 10.8 100 0.0 W 17 22 9 12 1023.2 1023.3 1.4
28/01:36pm 10.8 7.8 10.8 100 0.0 WNW 17 22 9 12 1023.2 1023.3 1.0
28/01:30pm 11.5 9.1 11.5 100 0.0 WNW 15 19 8 10 1023.1 1023.2 1.0
28/01:00pm 11.0 8.9 11.0 100 0.0 W 13 19 7 10 1023.4 1023.5 1.0
28/12:30pm 10.5 8.6 10.5 100 0.0 WNW 11 15 6 8 1023.8 1023.9 1.0
28/12:16pm 10.4 7.7 10.4 100 0.0 WNW 15 22 8 12 1024.0 1024.1 0.8
28/12:00pm 10.4 7.0 10.4 100 0.0 WNW 19 22 10 12 1024.1 1024.2 0.8
28/11:38am 10.1 6.6 10.1 100 0.0 WNW 19 26 10 14 1024.3 1024.4 0.8
28/11:34am 10.0 6.4 10.0 100 0.0 WNW 19 26 10 14 1024.3 1024.4 0.8
28/11:30am 9.8 6.0 9.8 100 0.0 WNW 20 28 11 15 1024.4 1024.5 0.8
28/11:15am 9.7 5.9 9.7 100 0.0 WNW 20 24 11 13 1024.3 1024.4 0.6
28/11:00am 9.6 5.7 9.6 100 0.0 WNW 20 28 11 15 1024.3 1024.4 0.6
28/10:51am 9.8 6.0 9.8 100 0.0 WNW 20 26 11 14 1024.4 1024.5 0.6
28/10:30am 9.4 5.5 9.4 100 0.0 WNW 20 24 11 13 1024.4 1024.5 0.2
28/10:21am 9.3 5.4 9.3 100 0.0 WNW 20 26 11 14 1024.4 1024.5 0.2
28/10:00am 9.3 5.4 9.3 100 0.0 WNW 20 26 11 14 1024.3 1024.4 0.2
28/09:43am 9.4 4.7 9.4 100 0.0 WNW 24 32 13 17 1024.2 1024.3 0.0
28/09:30am 9.9 5.4 9.9 100 0.0 WNW 24 30 13 16 1024.1 1024.2 0.0
28/09:00am 9.1 5.3 9.1 100 0.0 W 19 28 10 15 1024.1 1024.2 40.8
28/08:30am 8.8 4.9 8.8 100 0.0 WNW 19 26 10 14 1024.0 1024.1 40.8

Other Formats:

Comma delimited format used in spreadsheet applications
http://www.bom.gov.au/fwo/IDV60801/IDV60801.94891.axf

JavaScript Object Notation format (JSON) in row-major order
http://www.bom.gov.au/fwo/IDV60801/IDV60801.94891.json